Time;durP1;ratioP1;P1;durP2;ratioP2;P2;SDS_P1;SDS_P2;PMS_P1;PMS_P2;Temp;Humidity;BMP_temperature;BMP_pressure;BME280_temperature;BME280_humidity;BME280_pressure;Samples;Min_cycle;Max_cycle;Signal;HPM_P1;HPM_P2
2022/01/13 00:00:18;;;;;;;53.15;16.93;;;;;;;1.61;100.00;101782.63;741002;1154;113897;-76
2022/01/13 00:15:46;;;;;;;52.83;18.48;;;;;;;1.74;100.00;101791.80;740550;1154;115446;-76
2022/01/13 00:30:55;;;;;;;229.40;55.00;;;;;;;1.89;100.00;101774.12;740296;1162;114402;-76
2022/01/13 00:45:57;;;;;;;384.85;98.73;;;;;;;1.92;100.00;101730.05;740784;1155;115011;-75
2022/01/13 01:01:02;;;;;;;74.10;29.23;;;;;;;1.92;100.00;101717.11;740746;1162;114329;-76
2022/01/13 01:16:09;;;;;;;390.40;94.93;;;;;;;1.99;100.00;101700.49;739940;1162;115020;-75
2022/01/13 01:31:13;;;;;;;;;;;;;;;2.06;100.00;101689.08;739954;1162;115303;-76
2022/01/13 01:46:15;;;;;;;43.00;18.17;;;;;;;2.12;100.00;101651.80;740178;1154;99841;-75
2022/01/13 02:01:17;;;;;;;27.53;12.30;;;;;;;2.24;100.00;101617.73;739478;1162;114125;-74
2022/01/13 02:31:31;;;;;;;25.90;10.95;;;;;;;2.54;100.00;101567.59;739329;1154;114866;-75
2022/01/13 03:01:40;;;;;;;49.67;19.50;;;;;;;2.68;100.00;101549.83;739631;1162;115225;-75
2022/01/13 03:16:45;;;;;;;32.77;13.93;;;;;;;2.83;100.00;101535.47;740476;1154;115424;-75
2022/01/13 03:31:48;;;;;;;23.63;10.10;;;;;;;2.79;100.00;101506.22;739509;1162;114369;-75
2022/01/13 03:46:50;;;;;;;22.18;9.85;;;;;;;3.08;100.00;101496.53;739613;1154;115096;-76
2022/01/13 04:02:04;;;;;;;29.55;11.80;;;;;;;3.02;100.00;101493.32;740322;1154;114931;-75
2022/01/13 04:17:12;;;;;;;21.73;9.08;;;;;;;3.25;100.00;101500.25;740901;1154;115178;-75
2022/01/13 04:32:14;;;;;;;21.80;9.50;;;;;;;3.34;100.00;101484.34;739530;1158;114304;-74
2022/01/13 04:47:16;;;;;;;20.98;10.38;;;;;;;3.24;100.00;101451.88;739547;1154;114366;-75
2022/01/13 05:02:21;;;;;;;20.85;10.38;;;;;;;3.30;100.00;101480.17;740751;1154;114021;-74
2022/01/13 05:17:47;;;;;;;22.95;10.28;;;;;;;3.20;100.00;101420.02;739811;1154;115539;-75
2022/01/13 05:32:46;;;;;;;24.73;12.60;;;;;;;3.27;100.00;101363.55;739940;1154;113916;-76
2022/01/13 05:47:49;;;;;;;31.03;13.80;;;;;;;3.23;100.00;101292.80;739443;1154;113909;-77
2022/01/13 06:02:52;;;;;;;24.28;10.55;;;;;;;3.24;100.00;101317.84;739647;1154;114753;-75
2022/01/13 06:17:56;;;;;;;27.48;11.78;;;;;;;3.69;100.00;101313.38;739566;1154;113970;-76
2022/01/13 06:32:59;;;;;;;26.60;11.10;;;;;;;3.79;100.00;101351.02;739625;1154;113965;-76
2022/01/13 06:48:01;;;;;;;29.68;11.93;;;;;;;3.95;100.00;101333.03;740231;1155;114269;-76
2022/01/13 07:03:04;;;;;;;34.05;15.48;;;;;;;3.96;100.00;101311.36;740034;1162;115240;-74
2022/01/13 07:18:07;;;;;;;46.08;24.60;;;;;;;4.04;100.00;101344.78;740260;1154;114370;-75
2022/01/13 07:33:09;;;;;;;26.13;13.03;;;;;;;4.19;100.00;101363.20;740476;1154;114496;-76
2022/01/13 07:48:11;;;;;;;38.65;16.15;;;;;;;4.27;100.00;101337.72;740795;1154;114385;-77
2022/01/13 08:03:13;;;;;;;35.70;15.18;;;;;;;4.29;100.00;101373.11;741255;1154;114065;-77
2022/01/13 08:33:39;;;;;;;52.03;20.00;;;;;;;4.40;100.00;101344.05;740777;1155;114596;-74
2022/01/13 08:48:41;;;;;;;47.73;19.68;;;;;;;4.43;100.00;101330.07;740595;1154;113227;-73
2022/01/13 09:03:43;;;;;;;41.98;22.18;;;;;;;4.52;100.00;101297.63;742261;1155;113811;-72
2022/01/13 09:18:59;;;;;;;31.43;15.47;;;;;;;4.50;100.00;101290.74;741100;1162;114094;-73
2022/01/13 09:34:02;;;;;;;31.10;15.37;;;;;;;4.68;100.00;101280.39;741918;1162;114985;-73
2022/01/13 09:49:07;;;;;;;29.30;15.85;;;;;;;4.74;100.00;101277.51;741091;1162;114026;-73
2022/01/13 10:04:10;;;;;;;32.60;15.67;;;;;;;4.79;100.00;101279.88;740462;1157;115246;-73
2022/01/13 10:19:45;;;;;;;44.25;20.58;;;;;;;4.80;100.00;101243.42;740111;1162;113968;-73
2022/01/13 10:35:20;;;;;;;152.30;64.70;;;;;;;4.82;100.00;101231.17;739921;1157;114371;-72
2022/01/13 10:50:28;;;;;;;122.15;50.18;;;;;;;4.84;100.00;101215.49;740410;1155;114113;-73
2022/01/13 11:05:32;;;;;;;115.58;42.98;;;;;;;5.07;100.00;101227.37;740936;1156;114111;-74
2022/01/13 11:20:34;;;;;;;53.50;23.58;;;;;;;5.36;100.00;101206.84;740927;1154;114079;-76
2022/01/13 11:35:48;;;;;;;45.13;19.93;;;;;;;5.32;100.00;101187.11;743149;1157;114402;-79
2022/01/13 11:51:13;;;;;;;48.70;20.90;;;;;;;5.49;100.00;101171.45;740686;1156;113916;-79
2022/01/13 12:06:37;;;;;;;40.47;18.37;;;;;;;5.67;100.00;101181.80;742561;1154;114363;-80
2022/01/13 12:21:48;;;;;;;41.85;19.70;;;;;;;5.76;100.00;101176.10;743606;1157;113881;-81
2022/01/13 12:36:51;;;;;;;48.85;22.68;;;;;;;5.87;100.00;101151.25;745637;1162;114868;-82
2022/01/13 12:51:54;;;;;;;62.90;30.38;;;;;;;6.02;100.00;101140.03;742377;1155;114516;-82
2022/01/13 13:06:56;;;;;;;60.43;26.50;;;;;;;6.12;100.00;101130.78;741774;1162;114620;-81
2022/01/13 13:22:06;;;;;;;47.80;24.18;;;;;;;6.27;100.00;101103.02;742155;1157;114363;-80
2022/01/13 13:37:12;;;;;;;43.33;19.53;;;;;;;6.37;100.00;101100.71;740812;1157;114945;-78
2022/01/13 13:52:14;;;;;;;85.85;37.23;;;;;;;6.59;100.00;101121.17;742877;1155;113923;-78
2022/01/13 14:07:31;;;;;;;50.55;24.88;;;;;;;6.71;100.00;101110.97;740440;1162;115092;-77
2022/01/13 14:22:34;;;;;;;86.13;38.38;;;;;;;6.79;100.00;101093.92;740939;1161;114728;-77
2022/01/13 14:37:36;;;;;;;58.45;23.40;;;;;;;6.76;100.00;101099.33;740414;1156;114256;-77
2022/01/13 14:52:39;;;;;;;37.18;19.40;;;;;;;6.81;100.00;101067.77;740180;1162;113986;-77
2022/01/13 15:07:42;;;;;;;35.13;17.70;;;;;;;6.71;100.00;101062.25;740753;1156;113910;-79
2022/01/13 15:22:44;;;;;;;63.03;26.18;;;;;;;6.96;100.00;101066.83;741180;1162;115747;-80
2022/01/13 15:37:46;;;;;;;164.95;42.43;;;;;;;7.02;100.00;101073.47;740723;1154;113900;-79
2022/01/13 15:52:50;;;;;;;224.25;59.53;;;;;;;6.99;100.00;101071.88;740230;1162;114316;-81
2022/01/13 16:07:53;;;;;;;71.25;30.33;;;;;;;7.03;100.00;101049.03;740844;1157;114639;-81
2022/01/13 16:22:57;;;;;;;60.03;23.68;;;;;;;7.15;100.00;101052.66;740785;1162;113999;-79
2022/01/13 16:38:02;;;;;;;40.80;21.27;;;;;;;7.21;100.00;101046.25;740502;1162;114485;-80
2022/01/13 16:53:05;;;;;;;47.10;19.28;;;;;;;7.24;100.00;101040.83;740459;1162;114576;-78
2022/01/13 17:08:10;;;;;;;50.83;26.08;;;;;;;7.31;100.00;101039.50;740345;1157;115000;-77
2022/01/13 17:23:13;;;;;;;72.25;27.13;;;;;;;7.27;100.00;101020.60;740332;1154;114389;-78
2022/01/13 17:38:16;;;;;;;112.75;47.35;;;;;;;6.93;100.00;101014.03;742706;1161;113789;-81
2022/01/13 17:53:18;;;;;;;73.87;27.93;;;;;;;6.83;100.00;101018.95;742489;1155;114002;-81
2022/01/13 18:08:20;;;;;;;32.47;14.77;;;;;;;7.32;100.00;100999.42;743131;1154;113931;-81
2022/01/13 18:23:23;;;;;;;81.27;30.10;;;;;;;7.32;100.00;100988.98;743485;1155;114359;-77
2022/01/13 18:38:25;;;;;;;169.63;55.00;;;;;;;7.35;100.00;100973.14;740423;1162;114285;-77
2022/01/13 18:53:33;;;;;;;98.85;35.30;;;;;;;7.54;100.00;100941.45;741091;1155;114131;-77
2022/01/13 19:08:35;;;;;;;73.53;26.88;;;;;;;7.28;100.00;100932.69;740989;1155;113951;-77
2022/01/13 19:23:38;;;;;;;54.48;21.00;;;;;;;7.40;100.00;100942.34;740482;1157;115327;-78
2022/01/13 19:38:41;;;;;;;51.67;20.10;;;;;;;7.35;100.00;100900.05;740197;1154;113719;-77
2022/01/13 19:53:48;;;;;;;72.15;25.10;;;;;;;7.58;100.00;100942.93;740312;1162;113945;-78
2022/01/13 20:08:51;;;;;;;37.77;14.67;;;;;;;7.73;100.00;100927.20;740393;1162;114097;-79
2022/01/13 20:23:53;;;;;;;39.10;16.05;;;;;;;7.82;100.00;100909.13;740149;1154;114048;-77
2022/01/13 20:38:56;;;;;;;27.00;10.77;;;;;;;7.83;100.00;100908.20;740426;1157;114032;-77
2022/01/13 20:53:58;;;;;;;11.25;5.68;;;;;;;7.85;100.00;100923.77;741598;1162;114803;-77
2022/01/13 21:09:02;;;;;;;13.68;5.00;;;;;;;7.97;100.00;100911.66;740537;1155;113896;-77
2022/01/13 21:24:05;;;;;;;7.70;3.80;;;;;;;7.94;100.00;100906.65;740977;1155;113694;-79
2022/01/13 21:39:08;;;;;;;10.53;3.78;;;;;;;7.93;100.00;100884.92;740378;1154;113466;-81
2022/01/13 21:54:10;;;;;;;9.65;3.68;;;;;;;7.80;100.00;100874.45;741316;1155;113636;-80
2022/01/13 22:24:36;;;;;;;5.50;2.58;;;;;;;7.79;100.00;100864.11;740646;1162;113596;-81
2022/01/13 22:39:39;;;;;;;4.05;2.20;;;;;;;7.88;100.00;100857.41;741714;1155;113593;-80
2022/01/13 22:54:43;;;;;;;9.28;4.18;;;;;;;7.85;100.00;100855.02;742033;1159;113640;-81
2022/01/13 23:09:45;;;;;;;6.68;3.65;;;;;;;7.86;100.00;100830.58;740684;1154;113513;-80
2022/01/13 23:24:49;;;;;;;6.45;3.18;;;;;;;7.90;100.00;100808.52;740774;1156;113486;-80
2022/01/13 23:39:52;;;;;;;7.63;3.13;;;;;;;7.95;100.00;100795.98;742686;1162;115071;-80
2022/01/13 23:54:54;;;;;;;5.25;2.60;;;;;;;7.81;100.00;100755.98;743328;1155;113656;-80
